sensor_id;sensor_type;location;lat;lon;timestamp;P1;durP1;ratioP1;P2;durP2;ratioP2
28551;SDS011;15752;49.560;8.708;2023-04-25T00:01:04;2.20;;;2.00;;
28551;SDS011;15752;49.560;8.708;2023-04-25T00:03:35;2.90;;;2.33;;
28551;SDS011;15752;49.560;8.708;2023-04-25T00:06:04;2.53;;;2.00;;
28551;SDS011;15752;49.560;8.708;2023-04-25T00:08:34;3.30;;;2.27;;
28551;SDS011;15752;49.560;8.708;2023-04-25T00:11:04;2.43;;;2.20;;
28551;SDS011;15752;49.560;8.708;2023-04-25T00:13:32;2.60;;;2.00;;
28551;SDS011;15752;49.560;8.708;2023-04-25T00:16:00;1.70;;;1.60;;
28551;SDS011;15752;49.560;8.708;2023-04-25T00:18:30;2.47;;;2.27;;
28551;SDS011;15752;49.560;8.708;2023-04-25T00:20:59;2.33;;;2.13;;
28551;SDS011;15752;49.560;8.708;2023-04-25T00:23:28;2.77;;;2.20;;
28551;SDS011;15752;49.560;8.708;2023-04-25T00:25:57;4.00;;;2.37;;
28551;SDS011;15752;49.560;8.708;2023-04-25T00:28:27;2.93;;;2.03;;
28551;SDS011;15752;49.560;8.708;2023-04-25T00:30:55;2.63;;;2.33;;
28551;SDS011;15752;49.560;8.708;2023-04-25T00:33:23;2.63;;;2.43;;
28551;SDS011;15752;49.560;8.708;2023-04-25T00:35:52;2.47;;;1.80;;
28551;SDS011;15752;49.560;8.708;2023-04-25T00:38:20;2.17;;;1.80;;
28551;SDS011;15752;49.560;8.708;2023-04-25T00:40:49;3.67;;;2.30;;
28551;SDS011;15752;49.560;8.708;2023-04-25T00:43:17;2.93;;;2.60;;
28551;SDS011;15752;49.560;8.708;2023-04-25T00:45:47;2.47;;;2.10;;
28551;SDS011;15752;49.560;8.708;2023-04-25T00:48:17;2.60;;;2.40;;
28551;SDS011;15752;49.560;8.708;2023-04-25T00:50:48;2.60;;;2.33;;
28551;SDS011;15752;49.560;8.708;2023-04-25T00:53:20;3.43;;;2.60;;
28551;SDS011;15752;49.560;8.708;2023-04-25T00:55:49;2.77;;;2.20;;
28551;SDS011;15752;49.560;8.708;2023-04-25T00:58:18;2.77;;;2.47;;
28551;SDS011;15752;49.560;8.708;2023-04-25T01:00:50;2.40;;;2.20;;
28551;SDS011;15752;49.560;8.708;2023-04-25T01:03:19;4.00;;;2.53;;
28551;SDS011;15752;49.560;8.708;2023-04-25T01:05:49;2.60;;;2.40;;
28551;SDS011;15752;49.560;8.708;2023-04-25T01:08:18;2.80;;;2.60;;
28551;SDS011;15752;49.560;8.708;2023-04-25T01:10:51;3.37;;;2.90;;
28551;SDS011;15752;49.560;8.708;2023-04-25T01:13:20;3.57;;;2.47;;
28551;SDS011;15752;49.560;8.708;2023-04-25T01:15:50;2.87;;;2.67;;
28551;SDS011;15752;49.560;8.708;2023-04-25T01:18:19;2.83;;;2.60;;
28551;SDS011;15752;49.560;8.708;2023-04-25T01:20:48;2.90;;;2.57;;
28551;SDS011;15752;49.560;8.708;2023-04-25T01:23:21;2.77;;;2.47;;
28551;SDS011;15752;49.560;8.708;2023-04-25T01:25:51;3.17;;;2.87;;
28551;SDS011;15752;49.560;8.708;2023-04-25T01:28:20;3.07;;;2.77;;
28551;SDS011;15752;49.560;8.708;2023-04-25T01:30:49;3.27;;;2.97;;
28551;SDS011;15752;49.560;8.708;2023-04-25T01:33:20;2.90;;;2.63;;
28551;SDS011;15752;49.560;8.708;2023-04-25T01:35:49;3.17;;;2.87;;
28551;SDS011;15752;49.560;8.708;2023-04-25T01:38:19;3.30;;;2.90;;
28551;SDS011;15752;49.560;8.708;2023-04-25T01:40:49;3.70;;;3.40;;
28551;SDS011;15752;49.560;8.708;2023-04-25T01:43:19;3.03;;;2.73;;
28551;SDS011;15752;49.560;8.708;2023-04-25T01:45:47;4.37;;;3.10;;
28551;SDS011;15752;49.560;8.708;2023-04-25T01:48:18;3.57;;;3.13;;
28551;SDS011;15752;49.560;8.708;2023-04-25T01:50:47;4.30;;;3.50;;
28551;SDS011;15752;49.560;8.708;2023-04-25T01:53:16;3.43;;;2.93;;
28551;SDS011;15752;49.560;8.708;2023-04-25T01:55:45;4.03;;;3.20;;
28551;SDS011;15752;49.560;8.708;2023-04-25T01:58:18;3.73;;;3.20;;
28551;SDS011;15752;49.560;8.708;2023-04-25T02:01:05;4.40;;;3.90;;
28551;SDS011;15752;49.560;8.708;2023-04-25T02:03:41;3.43;;;3.13;;
28551;SDS011;15752;49.560;8.708;2023-04-25T02:06:22;3.53;;;3.23;;
28551;SDS011;15752;49.560;8.708;2023-04-25T02:08:53;3.90;;;3.53;;
28551;SDS011;15752;49.560;8.708;2023-04-25T02:11:21;5.37;;;4.00;;
28551;SDS011;15752;49.560;8.708;2023-04-25T02:14:29;3.57;;;3.27;;
28551;SDS011;15752;49.560;8.708;2023-04-25T02:17:03;3.83;;;3.53;;
28551;SDS011;15752;49.560;8.708;2023-04-25T02:19:32;4.10;;;3.70;;
28551;SDS011;15752;49.560;8.708;2023-04-25T02:22:00;4.50;;;4.10;;
28551;SDS011;15752;49.560;8.708;2023-04-25T02:24:29;5.57;;;4.13;;
28551;SDS011;15752;49.560;8.708;2023-04-25T02:27:00;5.00;;;3.87;;
28551;SDS011;15752;49.560;8.708;2023-04-25T02:29:30;4.03;;;3.63;;
28551;SDS011;15752;49.560;8.708;2023-04-25T02:31:58;4.27;;;3.87;;
28551;SDS011;15752;49.560;8.708;2023-04-25T02:34:27;3.93;;;3.53;;
28551;SDS011;15752;49.560;8.708;2023-04-25T02:36:55;4.10;;;3.70;;
28551;SDS011;15752;49.560;8.708;2023-04-25T02:39:24;4.33;;;3.93;;
28551;SDS011;15752;49.560;8.708;2023-04-25T02:41:54;4.70;;;3.83;;
28551;SDS011;15752;49.560;8.708;2023-04-25T02:44:23;4.47;;;3.77;;
28551;SDS011;15752;49.560;8.708;2023-04-25T02:46:53;4.20;;;3.80;;
28551;SDS011;15752;49.560;8.708;2023-04-25T02:49:22;3.93;;;3.43;;
28551;SDS011;15752;49.560;8.708;2023-04-25T02:51:51;3.63;;;3.30;;
28551;SDS011;15752;49.560;8.708;2023-04-25T02:54:19;5.53;;;4.30;;
28551;SDS011;15752;49.560;8.708;2023-04-25T02:56:48;4.47;;;3.90;;
28551;SDS011;15752;49.560;8.708;2023-04-25T02:59:22;4.63;;;4.23;;
28551;SDS011;15752;49.560;8.708;2023-04-25T03:01:52;4.63;;;4.23;;
28551;SDS011;15752;49.560;8.708;2023-04-25T03:04:21;3.97;;;3.57;;
28551;SDS011;15752;49.560;8.708;2023-04-25T03:06:51;4.40;;;4.00;;
28551;SDS011;15752;49.560;8.708;2023-04-25T03:09:20;4.20;;;3.80;;
28551;SDS011;15752;49.560;8.708;2023-04-25T03:11:51;4.90;;;4.40;;
28551;SDS011;15752;49.560;8.708;2023-04-25T03:14:19;4.47;;;3.73;;
28551;SDS011;15752;49.560;8.708;2023-04-25T03:16:48;5.03;;;4.53;;
28551;SDS011;15752;49.560;8.708;2023-04-25T03:19:18;4.80;;;4.27;;
28551;SDS011;15752;49.560;8.708;2023-04-25T03:21:46;4.33;;;3.90;;
28551;SDS011;15752;49.560;8.708;2023-04-25T03:24:16;5.23;;;4.23;;
28551;SDS011;15752;49.560;8.708;2023-04-25T03:26:45;6.40;;;5.57;;
28551;SDS011;15752;49.560;8.708;2023-04-25T03:29:13;6.40;;;4.77;;
28551;SDS011;15752;49.560;8.708;2023-04-25T03:31:43;5.00;;;4.50;;
28551;SDS011;15752;49.560;8.708;2023-04-25T03:34:12;5.87;;;5.20;;
28551;SDS011;15752;49.560;8.708;2023-04-25T03:36:42;6.07;;;5.47;;
28551;SDS011;15752;49.560;8.708;2023-04-25T03:39:11;7.10;;;5.67;;
28551;SDS011;15752;49.560;8.708;2023-04-25T03:41:45;9.00;;;6.53;;
28551;SDS011;15752;49.560;8.708;2023-04-25T03:44:15;6.50;;;5.83;;
28551;SDS011;15752;49.560;8.708;2023-04-25T03:46:44;8.37;;;6.30;;
28551;SDS011;15752;49.560;8.708;2023-04-25T03:49:13;7.67;;;6.40;;
28551;SDS011;15752;49.560;8.708;2023-04-25T03:51:55;6.97;;;5.93;;
28551;SDS011;15752;49.560;8.708;2023-04-25T03:54:27;7.10;;;6.00;;
28551;SDS011;15752;49.560;8.708;2023-04-25T03:57:04;6.57;;;5.93;;
28551;SDS011;15752;49.560;8.708;2023-04-25T03:59:36;7.47;;;5.83;;
28551;SDS011;15752;49.560;8.708;2023-04-25T04:02:06;8.17;;;6.67;;
28551;SDS011;15752;49.560;8.708;2023-04-25T04:04:35;7.17;;;6.33;;
28551;SDS011;15752;49.560;8.708;2023-04-25T04:07:06;7.23;;;5.67;;
28551;SDS011;15752;49.560;8.708;2023-04-25T04:09:38;7.37;;;6.10;;
28551;SDS011;15752;49.560;8.708;2023-04-25T04:12:11;8.00;;;6.13;;
28551;SDS011;15752;49.560;8.708;2023-04-25T04:14:41;7.77;;;6.97;;
28551;SDS011;15752;49.560;8.708;2023-04-25T04:17:09;7.93;;;6.50;;
28551;SDS011;15752;49.560;8.708;2023-04-25T04:19:38;6.13;;;5.53;;
28551;SDS011;15752;49.560;8.708;2023-04-25T04:22:15;6.60;;;5.87;;
28551;SDS011;15752;49.560;8.708;2023-04-25T04:24:44;7.00;;;6.30;;
28551;SDS011;15752;49.560;8.708;2023-04-25T04:27:18;7.77;;;6.80;;
28551;SDS011;15752;49.560;8.708;2023-04-25T04:30:06;7.30;;;6.40;;
28551;SDS011;15752;49.560;8.708;2023-04-25T04:32:45;6.73;;;6.03;;
28551;SDS011;15752;49.560;8.708;2023-04-25T04:35:16;8.07;;;7.27;;
28551;SDS011;15752;49.560;8.708;2023-04-25T04:37:47;7.97;;;7.17;;
28551;SDS011;15752;49.560;8.708;2023-04-25T04:40:17;7.53;;;6.60;;
28551;SDS011;15752;49.560;8.708;2023-04-25T04:42:54;7.77;;;6.97;;
28551;SDS011;15752;49.560;8.708;2023-04-25T04:45:41;9.40;;;7.67;;
28551;SDS011;15752;49.560;8.708;2023-04-25T04:48:37;7.47;;;6.77;;
28551;SDS011;15752;49.560;8.708;2023-04-25T04:51:25;8.43;;;7.53;;
28551;SDS011;15752;49.560;8.708;2023-04-25T04:53:55;9.47;;;7.37;;
28551;SDS011;15752;49.560;8.708;2023-04-25T04:56:43;7.73;;;7.03;;
28551;SDS011;15752;49.560;8.708;2023-04-25T04:59:33;8.53;;;7.63;;
28551;SDS011;15752;49.560;8.708;2023-04-25T05:02:15;7.67;;;6.77;;
28551;SDS011;15752;49.560;8.708;2023-04-25T05:04:43;8.73;;;7.83;;
28551;SDS011;15752;49.560;8.708;2023-04-25T05:07:25;8.17;;;7.27;;
28551;SDS011;15752;49.560;8.708;2023-04-25T05:10:07;7.93;;;7.00;;
28551;SDS011;15752;49.560;8.708;2023-04-25T05:13:02;8.63;;;7.73;;
28551;SDS011;15752;49.560;8.708;2023-04-25T05:15:49;8.03;;;7.23;;
28551;SDS011;15752;49.560;8.708;2023-04-25T05:18:34;7.83;;;7.03;;
28551;SDS011;15752;49.560;8.708;2023-04-25T05:21:17;7.70;;;6.90;;
28551;SDS011;15752;49.560;8.708;2023-04-25T05:23:54;7.70;;;6.90;;
28551;SDS011;15752;49.560;8.708;2023-04-25T05:26:42;11.13;;;8.90;;
28551;SDS011;15752;49.560;8.708;2023-04-25T05:29:22;11.30;;;10.07;;
28551;SDS011;15752;49.560;8.708;2023-04-25T05:32:13;13.80;;;9.27;;
28551;SDS011;15752;49.560;8.708;2023-04-25T05:34:41;11.30;;;9.27;;
28551;SDS011;15752;49.560;8.708;2023-04-25T05:37:19;11.60;;;9.87;;
28551;SDS011;15752;49.560;8.708;2023-04-25T05:39:57;11.33;;;8.73;;
28551;SDS011;15752;49.560;8.708;2023-04-25T05:42:53;11.73;;;8.67;;
28551;SDS011;15752;49.560;8.708;2023-04-25T05:45:40;9.60;;;8.37;;
28551;SDS011;15752;49.560;8.708;2023-04-25T05:48:29;10.13;;;8.93;;
28551;SDS011;15752;49.560;8.708;2023-04-25T05:51:24;9.67;;;8.13;;
28551;SDS011;15752;49.560;8.708;2023-04-25T05:54:05;8.70;;;7.80;;
28551;SDS011;15752;49.560;8.708;2023-04-25T05:56:34;8.93;;;7.20;;
28551;SDS011;15752;49.560;8.708;2023-04-25T05:59:04;9.67;;;8.17;;
28551;SDS011;15752;49.560;8.708;2023-04-25T06:01:32;8.20;;;7.27;;
28551;SDS011;15752;49.560;8.708;2023-04-25T06:04:00;8.87;;;7.97;;
28551;SDS011;15752;49.560;8.708;2023-04-25T06:06:31;8.50;;;7.60;;
28551;SDS011;15752;49.560;8.708;2023-04-25T06:09:00;10.23;;;7.77;;
28551;SDS011;15752;49.560;8.708;2023-04-25T06:11:30;9.23;;;8.23;;
28551;SDS011;15752;49.560;8.708;2023-04-25T06:13:58;7.93;;;6.93;;
28551;SDS011;15752;49.560;8.708;2023-04-25T06:16:29;8.53;;;7.07;;
28551;SDS011;15752;49.560;8.708;2023-04-25T06:18:57;8.77;;;7.13;;
28551;SDS011;15752;49.560;8.708;2023-04-25T06:21:26;8.33;;;7.00;;
28551;SDS011;15752;49.560;8.708;2023-04-25T06:23:54;10.53;;;7.07;;
28551;SDS011;15752;49.560;8.708;2023-04-25T06:26:23;7.50;;;6.73;;
28551;SDS011;15752;49.560;8.708;2023-04-25T06:28:51;8.53;;;7.33;;
28551;SDS011;15752;49.560;8.708;2023-04-25T06:31:20;8.00;;;6.67;;
28551;SDS011;15752;49.560;8.708;2023-04-25T06:33:51;8.93;;;8.03;;
28551;SDS011;15752;49.560;8.708;2023-04-25T06:36:23;7.57;;;6.73;;
28551;SDS011;15752;49.560;8.708;2023-04-25T06:39:00;7.20;;;6.37;;
28551;SDS011;15752;49.560;8.708;2023-04-25T06:41:28;6.77;;;6.03;;
28551;SDS011;15752;49.560;8.708;2023-04-25T06:44:00;7.33;;;5.90;;
28551;SDS011;15752;49.560;8.708;2023-04-25T06:46:33;6.67;;;5.50;;
28551;SDS011;15752;49.560;8.708;2023-04-25T06:49:04;9.53;;;5.43;;
28551;SDS011;15752;49.560;8.708;2023-04-25T06:51:33;6.50;;;5.40;;
28551;SDS011;15752;49.560;8.708;2023-04-25T06:54:01;8.80;;;5.73;;
28551;SDS011;15752;49.560;8.708;2023-04-25T06:56:54;6.67;;;5.20;;
28551;SDS011;15752;49.560;8.708;2023-04-25T06:59:23;5.27;;;4.53;;
28551;SDS011;15752;49.560;8.708;2023-04-25T07:01:51;6.13;;;4.47;;
28551;SDS011;15752;49.560;8.708;2023-04-25T07:04:25;5.40;;;4.17;;
28551;SDS011;15752;49.560;8.708;2023-04-25T07:06:55;7.87;;;4.73;;
28551;SDS011;15752;49.560;8.708;2023-04-25T07:09:35;5.77;;;4.00;;
28551;SDS011;15752;49.560;8.708;2023-04-25T07:12:04;4.33;;;3.30;;
28551;SDS011;15752;49.560;8.708;2023-04-25T07:14:33;6.17;;;3.93;;
28551;SDS011;15752;49.560;8.708;2023-04-25T07:17:02;7.00;;;3.93;;
28551;SDS011;15752;49.560;8.708;2023-04-25T07:19:40;5.67;;;4.20;;
28551;SDS011;15752;49.560;8.708;2023-04-25T07:22:10;7.83;;;3.93;;
28551;SDS011;15752;49.560;8.708;2023-04-25T07:24:40;5.13;;;3.63;;
28551;SDS011;15752;49.560;8.708;2023-04-25T07:27:12;4.73;;;3.43;;
28551;SDS011;15752;49.560;8.708;2023-04-25T07:29:50;4.93;;;3.77;;
28551;SDS011;15752;49.560;8.708;2023-04-25T07:32:21;6.97;;;3.47;;
28551;SDS011;15752;49.560;8.708;2023-04-25T07:34:51;6.47;;;4.07;;
28551;SDS011;15752;49.560;8.708;2023-04-25T07:37:20;5.20;;;3.80;;
28551;SDS011;15752;49.560;8.708;2023-04-25T07:40:01;7.37;;;5.50;;
28551;SDS011;15752;49.560;8.708;2023-04-25T07:42:31;7.83;;;5.20;;
28551;SDS011;15752;49.560;8.708;2023-04-25T07:45:01;6.73;;;4.40;;
28551;SDS011;15752;49.560;8.708;2023-04-25T07:47:30;6.30;;;3.47;;
28551;SDS011;15752;49.560;8.708;2023-04-25T07:50:00;5.50;;;3.60;;
28551;SDS011;15752;49.560;8.708;2023-04-25T07:52:30;4.73;;;3.60;;
28551;SDS011;15752;49.560;8.708;2023-04-25T07:55:06;4.20;;;3.50;;
28551;SDS011;15752;49.560;8.708;2023-04-25T07:57:50;7.17;;;4.47;;
28551;SDS011;15752;49.560;8.708;2023-04-25T08:00:19;5.80;;;4.30;;
28551;SDS011;15752;49.560;8.708;2023-04-25T08:02:56;4.20;;;3.13;;
28551;SDS011;15752;49.560;8.708;2023-04-25T08:05:26;6.53;;;2.97;;
28551;SDS011;15752;49.560;8.708;2023-04-25T08:08:01;6.13;;;3.57;;
28551;SDS011;15752;49.560;8.708;2023-04-25T08:10:32;5.77;;;3.53;;
28551;SDS011;15752;49.560;8.708;2023-04-25T08:13:01;5.83;;;2.90;;
28551;SDS011;15752;49.560;8.708;2023-04-25T08:15:29;5.17;;;3.10;;
28551;SDS011;15752;49.560;8.708;2023-04-25T08:17:58;3.93;;;2.43;;
28551;SDS011;15752;49.560;8.708;2023-04-25T08:20:28;4.83;;;2.53;;
28551;SDS011;15752;49.560;8.708;2023-04-25T08:22:59;4.37;;;2.80;;
28551;SDS011;15752;49.560;8.708;2023-04-25T08:25:50;7.70;;;3.27;;
28551;SDS011;15752;49.560;8.708;2023-04-25T08:28:23;5.43;;;2.73;;
28551;SDS011;15752;49.560;8.708;2023-04-25T08:30:53;6.57;;;2.83;;
28551;SDS011;15752;49.560;8.708;2023-04-25T08:33:22;7.37;;;3.13;;
28551;SDS011;15752;49.560;8.708;2023-04-25T08:36:01;3.57;;;2.47;;
28551;SDS011;15752;49.560;8.708;2023-04-25T08:38:31;5.73;;;2.80;;
28551;SDS011;15752;49.560;8.708;2023-04-25T08:41:01;4.40;;;2.83;;
28551;SDS011;15752;49.560;8.708;2023-04-25T08:43:31;6.13;;;2.70;;
28551;SDS011;15752;49.560;8.708;2023-04-25T08:46:00;5.23;;;2.87;;
28551;SDS011;15752;49.560;8.708;2023-04-25T08:48:37;6.33;;;2.70;;
28551;SDS011;15752;49.560;8.708;2023-04-25T08:51:09;7.87;;;3.10;;
28551;SDS011;15752;49.560;8.708;2023-04-25T08:53:42;7.13;;;3.10;;
28551;SDS011;15752;49.560;8.708;2023-04-25T08:56:12;8.23;;;3.43;;
28551;SDS011;15752;49.560;8.708;2023-04-25T08:58:47;9.33;;;4.10;;
28551;SDS011;15752;49.560;8.708;2023-04-25T09:01:17;4.83;;;3.10;;
28551;SDS011;15752;49.560;8.708;2023-04-25T09:03:50;5.90;;;3.70;;
28551;SDS011;15752;49.560;8.708;2023-04-25T09:06:20;6.67;;;3.13;;
28551;SDS011;15752;49.560;8.708;2023-04-25T09:08:50;8.70;;;4.47;;
28551;SDS011;15752;49.560;8.708;2023-04-25T09:11:18;8.50;;;4.67;;
28551;SDS011;15752;49.560;8.708;2023-04-25T09:13:50;6.17;;;3.53;;
28551;SDS011;15752;49.560;8.708;2023-04-25T09:17:03;8.13;;;3.47;;
28551;SDS011;15752;49.560;8.708;2023-04-25T09:19:46;7.67;;;4.00;;
28551;SDS011;15752;49.560;8.708;2023-04-25T09:22:31;6.87;;;3.60;;
28551;SDS011;15752;49.560;8.708;2023-04-25T09:25:01;6.57;;;3.17;;
28551;SDS011;15752;49.560;8.708;2023-04-25T09:27:33;6.77;;;4.60;;
28551;SDS011;15752;49.560;8.708;2023-04-25T09:30:09;5.80;;;3.87;;
28551;SDS011;15752;49.560;8.708;2023-04-25T09:32:58;6.40;;;3.60;;
28551;SDS011;15752;49.560;8.708;2023-04-25T09:35:36;6.20;;;3.60;;
28551;SDS011;15752;49.560;8.708;2023-04-25T09:38:10;7.77;;;3.67;;
28551;SDS011;15752;49.560;8.708;2023-04-25T09:40:54;5.23;;;3.33;;
28551;SDS011;15752;49.560;8.708;2023-04-25T09:43:34;7.17;;;3.63;;
28551;SDS011;15752;49.560;8.708;2023-04-25T09:46:03;8.23;;;3.90;;
28551;SDS011;15752;49.560;8.708;2023-04-25T09:48:41;6.23;;;3.57;;
28551;SDS011;15752;49.560;8.708;2023-04-25T09:51:25;7.83;;;3.70;;
28551;SDS011;15752;49.560;8.708;2023-04-25T09:53:58;5.90;;;3.53;;
28551;SDS011;15752;49.560;8.708;2023-04-25T09:56:35;5.37;;;2.80;;
28551;SDS011;15752;49.560;8.708;2023-04-25T09:59:06;5.03;;;3.03;;
28551;SDS011;15752;49.560;8.708;2023-04-25T10:01:36;10.07;;;3.87;;
28551;SDS011;15752;49.560;8.708;2023-04-25T10:04:19;5.03;;;3.63;;
28551;SDS011;15752;49.560;8.708;2023-04-25T10:07:05;7.93;;;3.33;;
28551;SDS011;15752;49.560;8.708;2023-04-25T10:09:38;4.77;;;3.40;;
28551;SDS011;15752;49.560;8.708;2023-04-25T10:12:08;7.73;;;3.70;;
28551;SDS011;15752;49.560;8.708;2023-04-25T10:14:36;6.90;;;3.60;;
28551;SDS011;15752;49.560;8.708;2023-04-25T10:17:05;7.60;;;3.53;;
28551;SDS011;15752;49.560;8.708;2023-04-25T10:19:35;8.93;;;3.87;;
28551;SDS011;15752;49.560;8.708;2023-04-25T10:22:05;9.10;;;3.77;;
28551;SDS011;15752;49.560;8.708;2023-04-25T10:24:37;8.57;;;4.03;;
28551;SDS011;15752;49.560;8.708;2023-04-25T10:27:07;7.73;;;3.33;;
28551;SDS011;15752;49.560;8.708;2023-04-25T10:29:35;6.73;;;3.43;;
28551;SDS011;15752;49.560;8.708;2023-04-25T10:32:04;7.03;;;4.33;;
28551;SDS011;15752;49.560;8.708;2023-04-25T10:34:51;6.53;;;3.43;;
28551;SDS011;15752;49.560;8.708;2023-04-25T10:37:19;6.37;;;3.30;;
28551;SDS011;15752;49.560;8.708;2023-04-25T10:39:49;7.50;;;3.67;;
28551;SDS011;15752;49.560;8.708;2023-04-25T10:42:19;7.00;;;3.63;;
28551;SDS011;15752;49.560;8.708;2023-04-25T10:45:00;4.83;;;3.47;;
28551;SDS011;15752;49.560;8.708;2023-04-25T10:47:34;5.47;;;3.47;;
28551;SDS011;15752;49.560;8.708;2023-04-25T10:50:07;6.00;;;3.47;;
28551;SDS011;15752;49.560;8.708;2023-04-25T10:52:38;7.83;;;3.00;;
28551;SDS011;15752;49.560;8.708;2023-04-25T10:55:08;7.80;;;3.83;;
28551;SDS011;15752;49.560;8.708;2023-04-25T10:57:39;7.17;;;3.77;;
28551;SDS011;15752;49.560;8.708;2023-04-25T11:00:10;6.60;;;3.90;;
28551;SDS011;15752;49.560;8.708;2023-04-25T11:02:42;5.97;;;3.53;;
28551;SDS011;15752;49.560;8.708;2023-04-25T11:05:33;4.30;;;2.67;;
28551;SDS011;15752;49.560;8.708;2023-04-25T11:08:26;5.20;;;3.00;;
28551;SDS011;15752;49.560;8.708;2023-04-25T11:11:11;4.00;;;2.63;;
28551;SDS011;15752;49.560;8.708;2023-04-25T11:13:40;5.17;;;2.57;;
28551;SDS011;15752;49.560;8.708;2023-04-25T11:16:08;5.20;;;2.63;;
28551;SDS011;15752;49.560;8.708;2023-04-25T11:18:40;4.63;;;2.53;;
28551;SDS011;15752;49.560;8.708;2023-04-25T11:21:09;4.20;;;2.40;;
28551;SDS011;15752;49.560;8.708;2023-04-25T11:23:37;5.40;;;2.37;;
28551;SDS011;15752;49.560;8.708;2023-04-25T11:26:06;4.17;;;2.00;;
28551;SDS011;15752;49.560;8.708;2023-04-25T11:28:36;3.83;;;2.60;;
28551;SDS011;15752;49.560;8.708;2023-04-25T11:31:13;3.60;;;2.50;;
28551;SDS011;15752;49.560;8.708;2023-04-25T11:33:41;3.70;;;2.27;;
28551;SDS011;15752;49.560;8.708;2023-04-25T11:36:11;3.63;;;2.13;;
28551;SDS011;15752;49.560;8.708;2023-04-25T11:38:40;4.73;;;2.07;;
28551;SDS011;15752;49.560;8.708;2023-04-25T11:41:09;3.33;;;2.03;;
28551;SDS011;15752;49.560;8.708;2023-04-25T11:43:39;4.37;;;2.43;;
28551;SDS011;15752;49.560;8.708;2023-04-25T11:46:08;3.23;;;1.90;;
28551;SDS011;15752;49.560;8.708;2023-04-25T11:48:38;5.27;;;2.20;;
28551;SDS011;15752;49.560;8.708;2023-04-25T11:51:06;5.67;;;2.27;;
28551;SDS011;15752;49.560;8.708;2023-04-25T11:53:35;4.60;;;2.10;;
28551;SDS011;15752;49.560;8.708;2023-04-25T11:56:08;3.13;;;2.10;;
28551;SDS011;15752;49.560;8.708;2023-04-25T11:58:58;5.00;;;2.60;;
28551;SDS011;15752;49.560;8.708;2023-04-25T12:01:28;2.70;;;2.07;;
28551;SDS011;15752;49.560;8.708;2023-04-25T12:04:09;2.40;;;2.20;;
28551;SDS011;15752;49.560;8.708;2023-04-25T12:06:40;3.20;;;2.13;;
28551;SDS011;15752;49.560;8.708;2023-04-25T12:09:11;2.37;;;2.00;;
28551;SDS011;15752;49.560;8.708;2023-04-25T12:11:40;4.50;;;2.27;;
28551;SDS011;15752;49.560;8.708;2023-04-25T12:14:11;3.77;;;2.40;;
28551;SDS011;15752;49.560;8.708;2023-04-25T12:16:48;4.57;;;2.50;;
28551;SDS011;15752;49.560;8.708;2023-04-25T12:19:18;4.07;;;2.57;;
28551;SDS011;15752;49.560;8.708;2023-04-25T12:21:47;3.57;;;2.40;;
28551;SDS011;15752;49.560;8.708;2023-04-25T12:24:24;3.13;;;2.30;;
28551;SDS011;15752;49.560;8.708;2023-04-25T12:26:58;3.43;;;2.60;;
28551;SDS011;15752;49.560;8.708;2023-04-25T12:29:31;3.80;;;2.23;;
28551;SDS011;15752;49.560;8.708;2023-04-25T12:32:15;2.90;;;2.30;;
28551;SDS011;15752;49.560;8.708;2023-04-25T12:34:45;4.63;;;2.23;;
28551;SDS011;15752;49.560;8.708;2023-04-25T12:37:19;4.27;;;2.03;;
28551;SDS011;15752;49.560;8.708;2023-04-25T12:39:47;5.33;;;2.70;;
28551;SDS011;15752;49.560;8.708;2023-04-25T12:42:16;5.63;;;2.33;;
28551;SDS011;15752;49.560;8.708;2023-04-25T12:44:45;3.90;;;2.20;;
28551;SDS011;15752;49.560;8.708;2023-04-25T12:47:14;5.37;;;2.57;;
28551;SDS011;15752;49.560;8.708;2023-04-25T12:49:42;4.93;;;3.10;;
28551;SDS011;15752;49.560;8.708;2023-04-25T12:52:10;4.00;;;3.10;;
28551;SDS011;15752;49.560;8.708;2023-04-25T12:54:39;3.27;;;2.70;;
28551;SDS011;15752;49.560;8.708;2023-04-25T12:57:07;2.73;;;2.47;;
28551;SDS011;15752;49.560;8.708;2023-04-25T12:59:36;6.43;;;2.60;;
28551;SDS011;15752;49.560;8.708;2023-04-25T13:02:10;4.83;;;2.50;;
28551;SDS011;15752;49.560;8.708;2023-04-25T13:04:39;5.40;;;2.90;;
28551;SDS011;15752;49.560;8.708;2023-04-25T13:07:07;3.53;;;2.40;;
28551;SDS011;15752;49.560;8.708;2023-04-25T13:09:35;3.37;;;2.60;;
28551;SDS011;15752;49.560;8.708;2023-04-25T13:12:04;6.17;;;3.10;;
28551;SDS011;15752;49.560;8.708;2023-04-25T13:14:33;7.40;;;3.23;;
28551;SDS011;15752;49.560;8.708;2023-04-25T13:17:02;4.53;;;3.07;;
28551;SDS011;15752;49.560;8.708;2023-04-25T13:19:32;3.57;;;2.97;;
28551;SDS011;15752;49.560;8.708;2023-04-25T13:22:01;5.07;;;3.17;;
28551;SDS011;15752;49.560;8.708;2023-04-25T13:24:30;4.93;;;3.03;;
28551;SDS011;15752;49.560;8.708;2023-04-25T13:27:01;4.57;;;2.97;;
28551;SDS011;15752;49.560;8.708;2023-04-25T13:29:30;3.87;;;2.70;;
28551;SDS011;15752;49.560;8.708;2023-04-25T13:32:01;4.60;;;2.90;;
28551;SDS011;15752;49.560;8.708;2023-04-25T13:34:29;6.13;;;3.33;;
28551;SDS011;15752;49.560;8.708;2023-04-25T13:36:59;5.67;;;3.30;;
28551;SDS011;15752;49.560;8.708;2023-04-25T13:39:28;7.60;;;3.03;;
28551;SDS011;15752;49.560;8.708;2023-04-25T13:41:56;4.10;;;3.00;;
28551;SDS011;15752;49.560;8.708;2023-04-25T13:44:25;4.97;;;2.90;;
28551;SDS011;15752;49.560;8.708;2023-04-25T13:46:53;4.60;;;3.20;;
28551;SDS011;15752;49.560;8.708;2023-04-25T13:49:21;7.70;;;3.27;;
28551;SDS011;15752;49.560;8.708;2023-04-25T13:51:50;3.27;;;2.97;;
28551;SDS011;15752;49.560;8.708;2023-04-25T13:54:19;5.90;;;3.90;;
28551;SDS011;15752;49.560;8.708;2023-04-25T13:56:49;7.70;;;3.60;;
28551;SDS011;15752;49.560;8.708;2023-04-25T13:59:18;10.90;;;7.97;;
28551;SDS011;15752;49.560;8.708;2023-04-25T14:01:47;7.37;;;5.37;;
28551;SDS011;15752;49.560;8.708;2023-04-25T14:04:15;6.23;;;3.87;;
28551;SDS011;15752;49.560;8.708;2023-04-25T14:06:43;4.67;;;3.17;;
28551;SDS011;15752;49.560;8.708;2023-04-25T14:09:12;7.73;;;3.63;;
28551;SDS011;15752;49.560;8.708;2023-04-25T14:11:44;5.43;;;3.97;;
28551;SDS011;15752;49.560;8.708;2023-04-25T14:14:13;7.40;;;3.77;;
28551;SDS011;15752;49.560;8.708;2023-04-25T14:16:42;4.73;;;3.63;;
28551;SDS011;15752;49.560;8.708;2023-04-25T14:19:11;4.77;;;3.43;;
28551;SDS011;15752;49.560;8.708;2023-04-25T14:21:39;4.80;;;3.57;;
28551;SDS011;15752;49.560;8.708;2023-04-25T14:24:09;4.83;;;3.17;;
28551;SDS011;15752;49.560;8.708;2023-04-25T14:26:38;5.67;;;3.33;;
28551;SDS011;15752;49.560;8.708;2023-04-25T14:29:08;5.57;;;3.03;;
28551;SDS011;15752;49.560;8.708;2023-04-25T14:31:38;4.23;;;3.00;;
28551;SDS011;15752;49.560;8.708;2023-04-25T14:34:07;6.40;;;3.17;;
28551;SDS011;15752;49.560;8.708;2023-04-25T14:36:37;5.10;;;2.97;;
28551;SDS011;15752;49.560;8.708;2023-04-25T14:39:06;6.53;;;3.13;;
28551;SDS011;15752;49.560;8.708;2023-04-25T14:41:35;3.77;;;2.73;;
28551;SDS011;15752;49.560;8.708;2023-04-25T14:44:03;5.27;;;2.80;;
28551;SDS011;15752;49.560;8.708;2023-04-25T14:46:33;6.03;;;3.00;;
28551;SDS011;15752;49.560;8.708;2023-04-25T14:49:02;7.27;;;3.37;;
28551;SDS011;15752;49.560;8.708;2023-04-25T14:51:31;6.20;;;3.23;;
28551;SDS011;15752;49.560;8.708;2023-04-25T14:54:00;5.77;;;2.67;;
28551;SDS011;15752;49.560;8.708;2023-04-25T14:56:29;3.70;;;2.60;;
28551;SDS011;15752;49.560;8.708;2023-04-25T14:58:57;6.97;;;2.93;;
28551;SDS011;15752;49.560;8.708;2023-04-25T15:01:25;3.27;;;2.53;;
28551;SDS011;15752;49.560;8.708;2023-04-25T15:03:55;5.27;;;2.90;;
28551;SDS011;15752;49.560;8.708;2023-04-25T15:06:25;8.97;;;4.10;;
28551;SDS011;15752;49.560;8.708;2023-04-25T15:08:55;6.50;;;2.90;;
28551;SDS011;15752;49.560;8.708;2023-04-25T15:11:23;6.33;;;2.63;;
28551;SDS011;15752;49.560;8.708;2023-04-25T15:13:52;5.17;;;3.03;;
28551;SDS011;15752;49.560;8.708;2023-04-25T15:16:21;6.10;;;3.70;;
28551;SDS011;15752;49.560;8.708;2023-04-25T15:18:49;7.90;;;3.50;;